Station: Snowtown  

  Atmospheric Gas Attenuation - ITU Rec 676-11   ----------------- dB/100km -----------------
Date Time Temp RH % AH g/m3 Dew Point Wind Direction Speed kph Gust kph Barometer mB Rainfall Since 9am 24GHz 47GHz 76GHz 122GHz 134GHz 241GHz
03/09 18:00 14.7 85 10.7 12.2 6 6 1020.2 0 24.0 29.4 48.4 127.2 126.4 436.5
03/09 17:50 15 83 10.64 12.1 6 6 1013.1 0 23.9 28.9 47.6 125.2 124.4 429.5
03/09 17:40 15.1 83 10.71 12.2 6 9 1013.1 0 24.0 29.0 47.8 125.8 125.2 432.3
03/09 17:30 15.2 84 10.9 12.5 7 9 1020 0 24.4 29.6 48.9 128.6 128.4 443.4
03/09 17:20 15.4 83 10.9 12.5 9 11 1013.1 0 24.4 29.2 48.4 127.5 127.3 439.9
03/09 17:10 15.5 81 10.71 12.3 9 13 1013.1 0 24.0 28.9 47.6 125.2 124.5 430.1
03/09 17:00 15.8 81 10.9 12.5 7 11 1019.9 0 24.4 29.4 48.5 127.6 127.4 440.0
03/09 16:50 15.8 77 10.36 11.8 7 11 1013.1 0 23.2 28.2 45.9 120.8 119.2 411.6
03/09 16:40 15.9 78 10.56 12.1 9 13 1013.1 0 23.7 28.5 46.7 122.8 121.8 420.7
03/09 16:30 16.2 77 10.62 12.2 11 13 1019.7 0 23.8 28.7 47.1 123.8 122.8 424.1
03/09 16:20 16.6 77 10.88 12.6 13 17 1013.1 0 24.3 28.8 47.6 125.3 125.1 432.2
03/09 16:10 17.1 71 10.33 11.8 15 19 1013.1 0 23.1 27.7 45.0 118.4 116.8 403.4
03/09 16:00 17.3 73 10.75 12.4 11 15 1019.7 0 24.0 28.6 47.0 123.5 122.8 424.3
03/09 15:50 17.2 73 10.69 12.3 17 20 1013.1 0 23.9 28.3 46.4 122.2 121.5 419.9
03/09 15:40 16.8 74 10.58 12.1 15 20 1013.1 0 23.7 28.2 46.2 121.6 120.7 416.8
03/09 15:30 17.1 76 11.06 12.8 13 19 1019.6 0 24.7 29.2 48.4 127.3 127.4 440.3
03/09 15:20 16.8 74 10.58 12.1 19 26 1013.1 0 23.7 28.2 46.2 121.6 120.7 416.8
03/09 15:10 17.2 73 10.69 12.3 15 20 1013.1 0 23.9 28.3 46.4 122.2 121.5 419.9
03/09 15:00 17.6 73 10.95 12.7 19 26 1019.6 0 24.4 28.8 47.6 125.2 125.1 432.2
03/09 14:50 16.8 73 10.44 11.9 17 22 1013.1 0 23.4 28.0 45.7 120.1 118.8 410.2
03/09 14:40 16.6 74 10.45 12 19 28 1013.1 0 23.4 28.1 45.8 120.5 119.2 411.7
03/09 14:30 16.3 78 10.82 12.5 20 30 1019.7 0 24.2 29.0 47.9 125.9 125.4 433.2
03/09 14:20 16.2 77 10.62 12.2 20 28 1013.1 0 23.8 28.5 46.8 123.0 122.2 421.9
03/09 14:10 16.3 76 10.54 12.1 20 30 1013.1 0 23.6 28.3 46.4 122.0 120.9 417.6
03/09 14:00 16.6 79 11.16 12.9 19 28 1019.7 0 24.9 29.5 49.1 129.2 129.6 448.0
03/09 13:50 15.4 82 10.77 12.3 20 24 1013.1 0 24.1 29.0 47.9 126.0 125.5 433.6
03/09 13:40 16.2 77 10.62 12.2 20 26 1013.1 0 23.8 28.5 46.8 123.0 122.2 421.9
03/09 13:30 16.3 75 10.4 11.9 20 30 1019.7 0 23.3 28.3 46.1 121.2 119.6 413.0
03/09 13:20 15.8 79 10.63 12.2 20 28 1013.1 0 23.8 28.6 47.0 123.8 122.9 424.6
03/09 13:10 16.1 80 10.97 12.7 19 28 1013.1 0 24.5 29.1 48.3 127.1 127.2 439.4
03/09 13:00 15.8 78 10.5 12 17 24 1019.9 0 23.5 28.7 46.8 123.1 121.8 420.6
03/09 12:50 15.7 77 10.3 11.7 19 26 1013.1 0 23.1 28.1 45.7 120.3 118.6 409.3
03/09 12:40 15.6 79 10.51 12 15 20 1013.1 0 23.6 28.5 46.6 122.8 121.6 419.9
03/09 12:30 15.7 76 10.17 11.5 17 24 1020 0 22.8 28.2 45.5 119.6 117.4 405.3
03/09 12:20 15.5 77 10.18 11.5 17 24 1013.1 0 22.9 28.0 45.3 119.2 117.2 404.6
03/09 12:10 16 77 10.49 12 13 19 1013.1 0 23.5 28.3 46.3 121.9 120.7 416.8
03/09 12:00 15.9 76 10.29 11.7 17 24 1020.1 0 23.1 28.3 45.9 120.6 118.8 410.0
03/09 11:50 16.1 75 10.28 11.7 17 24 1013.1 0 23.1 27.9 45.4 119.4 117.7 406.2
03/09 11:40 16.4 75 10.47 12 20 30 1013.1 0 23.4 28.2 46.0 121.1 119.8 413.7
03/09 11:30 16 71 9.67 10.7 19 26 1020.3 0 21.8 27.2 43.3 113.7 110.3 380.2
03/09 11:20 15.8 75 10.1 11.4 19 26 1013.1 0 22.7 27.7 44.8 117.9 115.7 399.3
03/09 11:10 14.9 78 9.94 11.1 17 22 1013.1 0 22.4 27.8 44.7 117.5 114.9 396.2
03/09 11:00 15 79 10.13 11.4 11 17 1020.3 0 22.8 28.3 45.8 120.3 118.0 407.1
03/09 10:50 15 81 10.39 11.8 15 20 1013.1 0 23.4 28.5 46.5 122.3 120.9 417.3
03/09 10:40 14.5 81 10.07 11.3 13 20 1013.1 0 22.7 28.1 45.4 119.5 117.3 404.5
03/09 10:30 14.8 82 10.39 11.8 9 19 1020.2 0 23.4 28.8 47.0 123.5 121.9 420.7
03/09 10:20 14.3 83 10.2 11.5 7 13 1013.1 0 23.0 28.4 46.1 121.3 119.4 411.9
03/09 10:10 13.7 85 10.07 11.2 9 15 1013.1 0 22.7 28.4 45.9 120.8 118.5 408.7
03/09 10:00 13.8 84 10.01 11.1 13 20 1020.4 0 22.6 28.5 46.0 120.8 118.2 407.6
03/09 09:50 13.2 87 9.99 11.1 15 20 1013.1 0 22.6 28.4 45.9 120.6 118.1 407.5
03/09 09:40 12.9 88 9.92 11 15 20 1013.1 0 22.5 28.4 45.7 120.3 117.6 405.6
03/09 09:30 13 88 9.98 11.1 15 24 1020.4 0 22.6 28.7 46.3 121.7 119.0 410.4
03/09 09:20 13.3 86 9.94 11 19 26 1013.1 0 22.5 28.3 45.6 119.9 117.3 404.5
03/09 09:10 13.7 83 9.83 10.9 20 26 1013.1 0 22.2 28.0 44.9 118.1 115.2 397.1
03/09 09:00 13.7 84 9.95 11 20 28 1020 0 22.5 28.4 45.7 120.2 117.5 405.1
03/09 08:50 13.6 86 10.12 11.3 20 30 1013.1 0 22.9 28.5 46.2 121.5 119.3 411.7
03/09 08:40 13.4 85 9.88 10.9 19 24 1013.1 0 22.4 28.1 45.3 119.1 116.3 401.0
03/09 08:30 12.9 85 9.58 10.4 17 24 1019.7 0 21.7 28.0 44.6 117.2 113.5 391.1
03/09 08:20 12.6 87 9.63 10.5 17 24 1013.1 0 21.9 28.0 44.7 117.5 114.0 393.0
03/09 08:10 12 88 9.38 10.1 17 22 1013.1 0 21.4 27.7 44.0 115.6 111.4 383.8
03/09 08:00 11.4 88 9.03 9.5 20 26 1019.2 0 20.6 27.6 43.1 113.2 107.9 371.5
03/09 07:50 11.3 88 8.98 9.4 20 28 1013.1 0 20.5 27.3 42.7 112.1 106.9 367.7
03/09 07:40 11 88 8.81 9.1 22 32 1013.1 0 20.2 27.1 42.1 110.6 104.9 360.9
03/09 07:30 10.9 89 8.85 9.2 24 30 1018.8 0 20.3 27.4 42.6 111.8 106.1 365.0
03/09 07:20 10.5 89 8.63 8.8 24 33 1013.1 0 19.8 26.9 41.6 109.3 103.1 354.5
03/09 07:10 10 90 8.46 8.4 24 30 1013.1 0 19.5 26.8 41.2 108.1 101.4 348.5
03/09 07:00 9.7 90 8.3 8.1 24 30 1018.5 0 19.1 26.8 40.9 107.3 100.0 343.6
03/09 06:50 9.5 90 8.19 7.9 22 26 1013.1 0 18.9 26.5 40.3 105.7 98.3 337.7
03/09 06:40 9.5 90 8.19 7.9 22 28 1013.1 0 18.9 26.5 40.3 105.7 98.3 337.7
03/09 06:30 9.3 90 8.09 7.7 22 26 1018.1 0 18.7 26.6 40.2 105.4 97.6 335.1
03/09 06:20 9.2 91 8.13 7.8 20 24 1013.1 0 18.8 26.5 40.2 105.4 97.9 336.1
03/09 06:10 9.4 89 8.05 7.7 22 24 1013.1 0 18.6 26.3 39.8 104.3 96.5 331.4
03/09 06:00 9.1 91 8.08 7.7 22 26 1018 0 18.7 26.6 40.3 105.5 97.7 335.4
03/09 05:50 9 91 8.03 7.6 22 24 1013.1 0 18.6 26.4 39.9 104.6 96.8 332.1
03/09 05:40 8.8 91 7.92 7.4 20 24 1013.1 0 18.4 26.2 39.5 103.6 95.5 327.6
03/09 05:30 8.7 91 7.87 7.3 20 24 1017.8 0 18.3 26.4 39.6 103.7 95.3 326.9
03/09 05:20 8.6 91 7.82 7.2 20 22 1013.1 0 18.2 26.1 39.2 102.8 94.4 323.6
03/09 05:10 8.7 91 7.87 7.3 20 24 1013.1 0 18.3 26.2 39.3 103.2 94.9 325.6
03/09 05:00 8.8 91 7.92 7.4 20 22 1017.6 0 18.4 26.4 39.7 104.1 95.9 328.8
03/09 04:50 8.8 90 7.84 7.3 20 22 1013.1 0 18.2 26.1 39.2 102.7 94.4 323.8
03/09 04:40 8.8 91 7.92 7.4 19 22 1013.1 0 18.4 26.2 39.5 103.6 95.5 327.6
03/09 04:30 8.9 91 7.97 7.5 19 20 1017.2 0 18.5 26.4 39.9 104.5 96.4 330.7
03/09 04:20 8.9 90 7.89 7.4 19 20 1013.1 0 18.3 26.2 39.3 103.2 95.0 325.8
03/09 04:10 9.3 90 8.09 7.7 19 22 1013.1 0 18.7 26.4 40.0 104.9 97.2 333.7
03/09 04:00 9.4 89 8.05 7.7 19 20 1017.1 0 18.6 26.4 39.9 104.7 96.9 332.4
03/09 03:50 9.6 89 8.16 7.9 19 20 1013.1 0 18.8 26.4 40.1 105.2 97.8 335.8
03/09 03:40 9.7 89 8.21 8 17 22 1013.1 0 18.9 26.5 40.3 105.7 98.4 337.8
03/09 03:30 9.6 89 8.16 7.9 17 19 1017 0 18.8 26.6 40.3 105.7 98.1 336.9
03/09 03:20 9.8 88 8.17 7.9 17 20 1013.1 0 18.9 26.4 40.0 105.1 97.7 335.4
03/09 03:10 9.8 89 8.26 8.1 17 22 1013.1 0 19.1 26.5 40.4 106.1 98.9 339.7
03/09 03:00 9.5 90 8.19 7.9 17 20 1017.4 0 18.9 26.6 40.5 106.2 98.7 338.9
03/09 02:50 9.6 89 8.16 7.9 19 20 1013.1 0 18.8 26.4 40.1 105.2 97.8 335.8
03/09 02:40 9.8 88 8.17 7.9 19 24 1013.1 0 18.9 26.4 40.0 105.1 97.7 335.4
03/09 02:30 10.2 87 8.28 8.1 19 22 1017.5 0 19.1 26.6 40.5 106.2 99.0 340.2
03/09 02:20 10.5 86 8.34 8.3 17 22 1013.1 0 19.2 26.4 40.4 106.0 99.1 340.5
03/09 02:10 10.8 85 8.4 8.4 17 20 1013.1 0 19.3 26.4 40.5 106.3 99.5 342.1
03/09 02:00 10.9 85 8.46 8.5 15 17 1017.8 0 19.4 26.7 40.9 107.3 100.6 345.8
03/09 01:50 11 84 8.41 8.4 11 15 1013.1 0 19.3 26.4 40.4 106.1 99.4 341.7
03/09 01:40 11.4 80 8.21 8.1 13 17 1013.1 0 18.9 26.0 39.4 103.4 96.2 330.5
03/09 01:30 11.7 77 8.05 7.8 17 24 1017.9 0 18.5 25.8 38.8 101.8 94.1 323.0

Last Refresh: 03-Sep-2026 18:08:32

Bureau of Meteorology